Morton S. Bouchard IV — WDB7380 — position and weather

sailwx.info

Track history (hours):
 
Tides and Currents Weather Stations Pressure Air Temp Water Temp Dewpoint Dewpoint Depression Visibility Wind Speed Wind Dir Waves Ship Positions

Morton S. Bouchard IV

Owner: Tug Morton S. Bouchard IV Corp, Melville, NY. More information available from US FCC via Universal Licensing System and Coast Guard Vessel Documentation Center.

Last reported at 2017-Nov-17 08:47 UTC. Time now 2017-Nov-22 11:08 UTC.
Position N 29°29' W 094°52'.

Length 179 m; draft 11.5 m.

Type: Tug. MMSI: 366941510.

Date/timePositionNaut miles runAvg speedWind from/ knotsBaromVisibWave heightAir tempDewpointWater temp
2017-Nov-17 08:47N 29°29' W 094°52'2 8.8
2017-Nov-17 08:30N 29°31' W 094°53'4 8.8
2017-Nov-17 08:00N 29°35' W 094°56'5 8.9
2017-Nov-17 07:24N 29°40' W 094°58'3 8.3
2017-Nov-17 07:00N 29°42' W 095°01'4 7.6
2017-Nov-17 06:27N 29°45' W 095°04'3 6.4
2017-Nov-17 05:56N 29°44' W 095°08'3 0.1
2017-Nov-16 03:08N 29°46' W 095°05'1 8.5
2017-Nov-16 03:00N 29°45' W 095°04'3 7.0
2017-Nov-16 02:30N 29°42' W 095°01'4 8.7
2017-Nov-16 02:00N 29°39' W 094°58'510.1
2017-Nov-16 01:31N 29°34' W 094°56'  
Track history (hours):
 
Tides and Currents Weather Stations Pressure Air Temp Water Temp Dewpoint Dewpoint Depression Visibility Wind Speed Wind Dir Waves Ship Positions

Morton S. Bouchard IV

Owner: Tug Morton S. Bouchard IV Corp, Melville, NY. More information available from US FCC via Universal Licensing System and Coast Guard Vessel Documentation Center.

Last reported at 2017-Nov-17 08:47 UTC. Time now 2017-Nov-22 11:08 UTC.
Position N 29°29' W 094°52'.

Length 179 m; draft 11.5 m.

Type: Tug. MMSI: 366941510.

Date/timePositionNaut miles runAvg speedWind from/ knotsBaromVisibWave heightAir tempDewpointWater temp
2017-Nov-17 08:47N 29°29' W 094°52'2 8.8
2017-Nov-17 08:30N 29°31' W 094°53'4 8.8
2017-Nov-17 08:00N 29°35' W 094°56'5 8.9
2017-Nov-17 07:24N 29°40' W 094°58'3 8.3
2017-Nov-17 07:00N 29°42' W 095°01'4 7.6
2017-Nov-17 06:27N 29°45' W 095°04'3 6.4
2017-Nov-17 05:56N 29°44' W 095°08'3 0.1
2017-Nov-16 03:08N 29°46' W 095°05'1 8.5
2017-Nov-16 03:00N 29°45' W 095°04'3 7.0
2017-Nov-16 02:30N 29°42' W 095°01'4 8.7
2017-Nov-16 02:00N 29°39' W 094°58'510.1
2017-Nov-16 01:31N 29°34' W 094°56'  

Dump ship's entire track history